createdAt,value
2018-06-09T00:00:17.254Z,17.30
2018-06-09T00:02:45.932Z,17.30
2018-06-09T00:05:14.586Z,17.20
2018-06-09T00:07:43.325Z,17.20
2018-06-09T00:10:11.998Z,17.20
2018-06-09T00:12:41.136Z,17.20
2018-06-09T00:15:09.838Z,17.20
2018-06-09T00:17:38.551Z,17.20
2018-06-09T00:20:07.230Z,17.20
2018-06-09T00:25:28.986Z,17.10
2018-06-09T00:27:57.652Z,17.10
2018-06-09T00:30:26.354Z,17.10
2018-06-09T00:32:55.062Z,17.10
2018-06-09T00:35:23.758Z,17.10
2018-06-09T00:37:52.472Z,17.10
2018-06-09T00:40:21.132Z,17.10
2018-06-09T00:42:49.839Z,17.10
2018-06-09T00:45:18.509Z,17.00
2018-06-09T00:47:47.210Z,17.00
2018-06-09T00:50:16.749Z,16.90
2018-06-09T00:52:45.390Z,16.90
2018-06-09T00:55:14.105Z,16.90
2018-06-09T00:57:42.874Z,16.90
2018-06-09T01:00:12.445Z,16.90
2018-06-09T01:02:41.118Z,16.90
2018-06-09T01:05:09.903Z,16.90
2018-06-09T01:07:39.614Z,16.80
2018-06-09T01:10:08.299Z,16.80
2018-06-09T01:12:37.007Z,16.80
2018-06-09T01:15:05.758Z,16.80
2018-06-09T01:17:34.463Z,16.70
2018-06-09T01:20:03.677Z,16.70
2018-06-09T01:22:32.347Z,16.70
2018-06-09T01:25:10.802Z,16.70
2018-06-09T01:27:39.486Z,16.70
2018-06-09T01:30:08.221Z,16.70
2018-06-09T01:35:05.218Z,16.70
2018-06-09T01:37:33.899Z,16.70
2018-06-09T01:40:02.599Z,16.70
2018-06-09T01:42:31.294Z,16.80
2018-06-09T01:44:59.953Z,16.70
2018-06-09T01:47:28.665Z,16.60
2018-06-09T01:49:57.342Z,16.60
2018-06-09T01:52:29.660Z,16.60
2018-06-09T01:54:58.336Z,16.60
2018-06-09T01:57:27.002Z,16.60
2018-06-09T01:59:55.725Z,16.50
2018-06-09T02:04:52.714Z,16.50
2018-06-09T02:07:21.426Z,16.50
2018-06-09T02:09:50.092Z,16.40
2018-06-09T02:12:18.775Z,16.50
2018-06-09T02:14:47.473Z,16.50
2018-06-09T02:17:16.353Z,16.50
2018-06-09T02:19:45.035Z,16.50
2018-06-09T02:22:13.840Z,16.50
2018-06-09T02:24:42.541Z,16.40
2018-06-09T02:27:11.267Z,16.50
2018-06-09T02:29:39.985Z,16.50
2018-06-09T02:32:08.660Z,16.50
2018-06-09T02:34:37.326Z,16.50
2018-06-09T02:37:06.078Z,16.50
2018-06-09T02:39:34.750Z,16.60
2018-06-09T02:42:03.437Z,16.60
2018-06-09T02:44:32.159Z,16.60
2018-06-09T02:47:00.842Z,16.50
2018-06-09T02:49:29.514Z,16.50
2018-06-09T02:51:58.236Z,16.50
2018-06-09T02:54:27.347Z,16.50
2018-06-09T02:59:46.739Z,16.40
2018-06-09T03:02:15.460Z,16.40
2018-06-09T03:04:44.175Z,16.30
2018-06-09T03:07:12.831Z,16.30
2018-06-09T03:09:41.508Z,16.30
2018-06-09T03:12:10.207Z,16.30
2018-06-09T03:14:38.874Z,16.30
2018-06-09T03:17:07.562Z,16.30
2018-06-09T03:19:36.285Z,16.30
2018-06-09T03:22:04.981Z,16.40
2018-06-09T03:24:33.713Z,16.40
2018-06-09T03:27:02.392Z,16.40
2018-06-09T03:29:31.100Z,16.40
2018-06-09T03:31:59.801Z,16.40
2018-06-09T03:34:28.465Z,16.40
2018-06-09T03:36:57.174Z,16.40
2018-06-09T03:39:25.877Z,16.40
2018-06-09T03:41:54.556Z,16.40
2018-06-09T03:44:23.234Z,16.40
2018-06-09T03:46:51.918Z,16.40
2018-06-09T03:49:20.584Z,16.40
2018-06-09T03:51:49.652Z,16.40
2018-06-09T03:54:18.346Z,16.50
2018-06-09T03:56:47.058Z,16.50
2018-06-09T03:59:15.801Z,16.50
2018-06-09T04:01:44.502Z,16.50
2018-06-09T04:04:13.184Z,16.50
2018-06-09T04:06:41.918Z,16.50
2018-06-09T04:09:10.673Z,16.50
2018-06-09T04:11:39.359Z,16.50
2018-06-09T04:14:08.071Z,16.50
2018-06-09T04:16:36.778Z,16.50
2018-06-09T04:19:05.510Z,16.70
2018-06-09T04:21:34.222Z,16.70
2018-06-09T04:24:02.914Z,16.70
2018-06-09T04:26:31.621Z,16.80
2018-06-09T04:29:00.294Z,16.80
2018-06-09T04:31:28.978Z,16.80
2018-06-09T04:33:57.676Z,16.90
2018-06-09T04:36:26.453Z,16.90
2018-06-09T04:38:57.253Z,17.00
2018-06-09T04:41:25.981Z,17.00
2018-06-09T04:43:54.653Z,17.10
2018-06-09T04:46:23.318Z,17.20
2018-06-09T04:48:52.014Z,17.20
2018-06-09T04:51:20.689Z,17.30
2018-06-09T04:53:49.394Z,17.40
2018-06-09T04:56:18.093Z,17.50
2018-06-09T04:58:46.799Z,17.60
2018-06-09T05:01:15.457Z,17.60
2018-06-09T05:03:44.971Z,17.70
2018-06-09T05:06:13.642Z,17.80
2018-06-09T05:08:42.334Z,17.90
2018-06-09T05:11:11.037Z,17.90
2018-06-09T05:13:39.708Z,18.00
2018-06-09T05:16:08.454Z,18.10
2018-06-09T05:18:37.158Z,18.10
2018-06-09T05:21:06.623Z,18.20
2018-06-09T05:26:03.661Z,18.50
2018-06-09T05:28:32.442Z,18.50
2018-06-09T05:31:01.133Z,18.60
2018-06-09T05:33:29.958Z,18.70
2018-06-09T05:36:00.723Z,19.00
2018-06-09T05:38:29.415Z,19.40
2018-06-09T05:40:58.129Z,20.00
2018-06-09T05:43:26.801Z,20.60
2018-06-09T05:45:55.537Z,21.00
2018-06-09T05:48:24.217Z,21.10
2018-06-09T05:50:52.877Z,21.20
2018-06-09T05:53:21.594Z,21.20
2018-06-09T05:55:50.276Z,21.40
2018-06-09T05:58:18.971Z,21.10
2018-06-09T06:00:48.711Z,21.70
2018-06-09T06:03:17.394Z,21.80
2018-06-09T06:05:46.078Z,22.40
2018-06-09T06:08:14.831Z,22.40
2018-06-09T06:10:43.546Z,22.40
2018-06-09T06:13:12.235Z,22.10
2018-06-09T06:15:40.975Z,21.80
2018-06-09T06:18:09.693Z,21.60
2018-06-09T06:20:38.426Z,21.80
2018-06-09T06:23:07.147Z,21.80
2018-06-09T06:25:35.838Z,22.00
2018-06-09T06:28:05.499Z,22.30
2018-06-09T06:30:34.254Z,22.40
2018-06-09T06:33:02.956Z,22.50
2018-06-09T06:35:31.654Z,22.40
2018-06-09T06:38:00.370Z,22.00
2018-06-09T06:40:30.002Z,22.70
2018-06-09T06:42:58.691Z,23.20
2018-06-09T06:45:47.826Z,23.50
2018-06-09T06:48:16.541Z,23.60
2018-06-09T06:50:45.248Z,23.10
2018-06-09T06:53:14.006Z,22.60
2018-06-09T06:55:42.737Z,22.20
2018-06-09T06:58:11.556Z,21.80
2018-06-09T07:00:42.398Z,21.80
2018-06-09T07:03:11.137Z,21.60
2018-06-09T07:05:39.842Z,21.60
2018-06-09T07:08:08.511Z,21.50
2018-06-09T07:10:37.230Z,21.60
2018-06-09T07:13:06.082Z,21.60
2018-06-09T07:15:34.762Z,21.50
2018-06-09T07:18:03.562Z,21.60
2018-06-09T07:20:32.298Z,21.80
2018-06-09T07:23:02.044Z,21.90
2018-06-09T07:25:30.935Z,21.90
2018-06-09T07:27:59.958Z,22.00
2018-06-09T07:30:28.706Z,21.90
2018-06-09T07:32:57.454Z,22.00
2018-06-09T07:35:26.380Z,22.10
2018-06-09T07:37:55.065Z,21.90
2018-06-09T07:42:55.542Z,22.00
2018-06-09T07:45:24.270Z,22.10
2018-06-09T07:47:53.035Z,22.40
2018-06-09T07:50:24.822Z,22.70
2018-06-09T07:52:53.484Z,22.80
2018-06-09T07:55:22.169Z,22.70
2018-06-09T07:57:50.927Z,22.70
2018-06-09T08:00:21.607Z,22.50
2018-06-09T08:02:50.352Z,22.40
2018-06-09T08:05:19.120Z,22.40
2018-06-09T08:07:47.878Z,22.30
2018-06-09T08:13:15.525Z,22.70
2018-06-09T08:15:44.222Z,22.60
2018-06-09T08:18:12.951Z,22.80
2018-06-09T08:20:41.719Z,22.80
2018-06-09T08:26:07.758Z,23.10
2018-06-09T08:28:40.506Z,23.50
2018-06-09T08:31:09.189Z,23.80
2018-06-09T08:33:38.102Z,23.30
2018-06-09T08:36:09.888Z,23.30
2018-06-09T08:41:07.553Z,23.20
2018-06-09T08:43:46.533Z,23.00
2018-06-09T08:46:15.215Z,23.10
2018-06-09T08:48:43.903Z,23.50
2018-06-09T08:51:12.578Z,23.50
2018-06-09T08:53:48.019Z,23.70
2018-06-09T08:56:16.739Z,23.70
2018-06-09T08:58:45.458Z,23.70
2018-06-09T09:01:14.198Z,23.80
2018-06-09T09:03:42.865Z,23.60
2018-06-09T09:06:11.569Z,23.70
2018-06-09T09:08:41.107Z,23.70
2018-06-09T09:11:09.883Z,23.60
2018-06-09T09:13:38.543Z,23.70
2018-06-09T09:19:00.300Z,23.50
2018-06-09T09:21:34.785Z,23.80
2018-06-09T09:24:19.577Z,24.00
2018-06-09T09:26:48.341Z,24.10
2018-06-09T09:29:17.110Z,23.90
2018-06-09T09:34:38.614Z,23.90
2018-06-09T09:37:07.334Z,24.00
2018-06-09T09:39:36.083Z,24.20
2018-06-09T09:42:04.784Z,24.10
2018-06-09T09:44:33.489Z,24.10
2018-06-09T09:47:02.531Z,24.10
2018-06-09T09:49:31.366Z,24.20
2018-06-09T09:52:00.074Z,24.50
2018-06-09T09:54:28.756Z,24.80
2018-06-09T09:56:57.447Z,24.70
2018-06-09T09:59:26.202Z,24.60
2018-06-09T10:01:54.886Z,24.80
2018-06-09T10:04:23.532Z,24.80
2018-06-09T10:06:52.263Z,25.00
2018-06-09T10:09:20.934Z,25.00
2018-06-09T10:11:49.622Z,24.80
2018-06-09T10:14:18.372Z,24.70
2018-06-09T10:16:47.290Z,24.70
2018-06-09T10:19:22.671Z,24.60
2018-06-09T10:21:51.434Z,24.60
2018-06-09T10:24:20.114Z,25.00
2018-06-09T10:26:48.835Z,25.20
2018-06-09T10:29:17.519Z,25.50
2018-06-09T10:31:46.243Z,25.30
2018-06-09T10:34:14.923Z,25.60
2018-06-09T10:36:43.649Z,25.60
2018-06-09T10:39:12.398Z,25.70
2018-06-09T10:41:41.119Z,26.10
2018-06-09T10:44:09.829Z,26.40
2018-06-09T10:46:38.535Z,26.50
2018-06-09T10:49:07.274Z,26.30
2018-06-09T10:51:35.962Z,26.30
2018-06-09T10:54:04.698Z,26.00
2018-06-09T10:56:33.425Z,25.80
2018-06-09T10:59:02.162Z,25.80
2018-06-09T11:01:30.873Z,25.70
2018-06-09T11:03:59.535Z,25.50
2018-06-09T11:06:28.267Z,25.60
2018-06-09T11:08:56.961Z,25.70
2018-06-09T11:14:38.064Z,26.30
2018-06-09T11:17:06.850Z,26.40
2018-06-09T11:19:35.564Z,26.30
2018-06-09T11:22:04.262Z,26.40
2018-06-09T11:24:33.002Z,26.60
2018-06-09T11:27:01.693Z,26.80
2018-06-09T11:29:47.473Z,26.80
2018-06-09T11:32:16.286Z,26.90
2018-06-09T11:34:45.016Z,26.90
2018-06-09T11:37:13.726Z,27.00
2018-06-09T11:39:42.425Z,26.90
2018-06-09T11:42:11.176Z,26.70
2018-06-09T11:44:39.965Z,26.20
2018-06-09T11:47:08.771Z,26.20
2018-06-09T11:52:47.926Z,26.30
2018-06-09T11:55:16.629Z,26.20
2018-06-09T11:57:45.294Z,26.50
2018-06-09T12:00:13.971Z,26.70
2018-06-09T12:02:42.681Z,26.90
2018-06-09T12:05:11.539Z,26.80
2018-06-09T12:07:40.291Z,26.70
2018-06-09T12:12:38.679Z,26.90
2018-06-09T12:15:07.375Z,26.70
2018-06-09T12:17:36.073Z,26.70
2018-06-09T12:22:47.406Z,27.30
2018-06-09T12:25:16.090Z,27.40
2018-06-09T12:27:44.792Z,26.90
2018-06-09T12:30:13.992Z,27.00
2018-06-09T12:32:42.696Z,27.10
2018-06-09T12:35:11.390Z,27.10
2018-06-09T12:37:40.101Z,27.50
2018-06-09T12:40:08.774Z,27.60
2018-06-09T12:45:05.882Z,27.50
2018-06-09T12:47:34.570Z,27.40
2018-06-09T12:50:06.786Z,27.00
2018-06-09T12:52:35.474Z,26.70
2018-06-09T12:55:04.220Z,26.30
2018-06-09T12:57:33.059Z,26.30
2018-06-09T13:00:01.748Z,26.10
2018-06-09T13:04:58.782Z,26.10
2018-06-09T13:07:27.464Z,26.20
2018-06-09T13:09:56.141Z,26.20
2018-06-09T13:12:24.832Z,26.20
2018-06-09T13:14:53.590Z,26.20
2018-06-09T13:17:22.522Z,26.20
2018-06-09T13:19:51.855Z,26.50
2018-06-09T13:22:20.565Z,26.60
2018-06-09T13:24:49.302Z,26.40
2018-06-09T13:27:18.011Z,26.70
2018-06-09T13:30:01.119Z,27.10
2018-06-09T13:34:58.220Z,27.20
2018-06-09T13:37:26.911Z,26.70
2018-06-09T13:39:55.658Z,26.20
2018-06-09T13:42:25.113Z,26.20
2018-06-09T13:44:53.834Z,26.00
2018-06-09T13:47:22.594Z,25.70
2018-06-09T13:49:51.298Z,25.60
2018-06-09T13:52:20.366Z,25.50
2018-06-09T13:54:49.122Z,25.60
2018-06-09T13:59:47.136Z,25.40
2018-06-09T14:02:15.898Z,25.40
2018-06-09T14:04:44.697Z,25.30
2018-06-09T14:07:13.430Z,25.20
2018-06-09T14:09:42.129Z,25.20
2018-06-09T14:12:11.101Z,25.00
2018-06-09T14:14:40.069Z,25.00
2018-06-09T14:17:08.843Z,24.90
2018-06-09T14:22:30.603Z,24.60
2018-06-09T14:24:59.317Z,24.30
2018-06-09T14:27:28.029Z,24.20
2018-06-09T14:29:56.859Z,24.20
2018-06-09T14:32:25.839Z,24.10
2018-06-09T14:34:54.546Z,24.10
2018-06-09T14:37:23.255Z,24.10
2018-06-09T14:39:51.978Z,24.00
2018-06-09T14:42:20.665Z,24.00
2018-06-09T14:44:49.403Z,23.90
2018-06-09T14:47:18.097Z,23.80
2018-06-09T14:49:46.766Z,23.80
2018-06-09T14:52:15.471Z,23.80
2018-06-09T14:54:44.157Z,23.70
2018-06-09T14:57:12.821Z,23.60
2018-06-09T14:59:41.531Z,23.50
2018-06-09T15:02:10.290Z,23.50
2018-06-09T15:04:39.035Z,23.50
2018-06-09T15:07:07.744Z,23.50
2018-06-09T15:09:36.484Z,23.50
2018-06-09T15:12:05.176Z,23.40
2018-06-09T15:14:33.869Z,23.30
2018-06-09T15:17:02.649Z,23.30
2018-06-09T15:19:31.536Z,23.30
2018-06-09T15:22:00.311Z,23.30
2018-06-09T15:24:29.029Z,23.30
2018-06-09T15:26:57.725Z,23.20
2018-06-09T15:29:26.467Z,23.20
2018-06-09T15:31:55.182Z,23.30
2018-06-09T15:34:23.895Z,23.30
2018-06-09T15:39:32.462Z,23.30
2018-06-09T15:42:01.150Z,23.40
2018-06-09T15:44:29.897Z,23.40
2018-06-09T15:49:26.900Z,23.60
2018-06-09T15:51:55.759Z,23.70
2018-06-09T15:57:17.625Z,23.90
2018-06-09T15:59:46.300Z,23.90
2018-06-09T16:02:14.975Z,24.00
2018-06-09T16:04:43.825Z,24.10
2018-06-09T16:07:12.499Z,24.20
2018-06-09T16:09:41.181Z,24.20
2018-06-09T16:12:09.870Z,24.20
2018-06-09T16:14:38.573Z,24.30
2018-06-09T16:17:07.420Z,24.30
2018-06-09T16:19:37.331Z,24.30
2018-06-09T16:22:06.289Z,24.30
2018-06-09T16:27:03.514Z,24.10
2018-06-09T16:29:48.737Z,24.10
2018-06-09T16:32:17.525Z,24.00
2018-06-09T16:35:05.067Z,24.00
2018-06-09T16:37:33.749Z,24.00
2018-06-09T16:40:02.427Z,24.00
2018-06-09T16:42:53.199Z,24.00
2018-06-09T16:45:21.954Z,24.00
2018-06-09T16:47:50.672Z,24.00
2018-06-09T16:53:13.803Z,23.90
2018-06-09T16:55:42.519Z,23.90
2018-06-09T16:58:11.209Z,23.90
2018-06-09T17:00:39.882Z,23.90
2018-06-09T17:03:08.587Z,23.90
2018-06-09T17:05:37.284Z,23.90
2018-06-09T17:11:00.033Z,23.90
2018-06-09T17:13:28.719Z,23.80
2018-06-09T17:15:57.386Z,23.80
2018-06-09T17:18:26.918Z,23.80
2018-06-09T17:20:55.643Z,23.80
2018-06-09T17:23:24.351Z,23.70
2018-06-09T17:28:46.084Z,23.50
2018-06-09T17:31:14.802Z,23.40
2018-06-09T17:36:36.434Z,23.20
2018-06-09T17:39:07.657Z,22.90
2018-06-09T17:41:36.459Z,22.70
2018-06-09T17:49:50.883Z,22.30
2018-06-09T17:52:21.359Z,22.20
2018-06-09T17:54:50.733Z,21.90
2018-06-09T17:59:50.324Z,21.10
2018-06-09T18:02:19.115Z,20.80
2018-06-09T18:04:47.822Z,20.50
2018-06-09T18:07:16.574Z,20.40
2018-06-09T18:09:53.674Z,20.20
2018-06-09T18:12:23.574Z,20.10
2018-06-09T18:14:52.291Z,20.00
2018-06-09T18:17:23.120Z,20.10
2018-06-09T18:19:52.396Z,20.10
2018-06-09T18:22:23.655Z,20.10
2018-06-09T18:25:00.339Z,20.00
2018-06-09T18:27:29.194Z,20.10
2018-06-09T18:29:58.016Z,20.10
2018-06-09T18:32:26.714Z,20.10
2018-06-09T18:38:08.029Z,20.00
2018-06-09T18:43:11.321Z,19.90
2018-06-09T18:45:40.016Z,19.90
2018-06-09T18:48:11.947Z,19.80
2018-06-09T18:50:52.250Z,19.80
2018-06-09T18:53:20.958Z,19.70
2018-06-09T18:55:49.697Z,19.70
2018-06-09T18:58:24.577Z,19.70
2018-06-09T19:00:53.265Z,19.60
2018-06-09T19:03:22.059Z,19.60
2018-06-09T19:05:50.910Z,19.50
2018-06-09T19:08:19.667Z,19.50
2018-06-09T19:10:48.364Z,19.50
2018-06-09T19:13:17.158Z,19.40
2018-06-09T19:15:59.742Z,19.40
2018-06-09T19:18:28.390Z,19.30
2018-06-09T19:20:57.065Z,19.30
2018-06-09T19:23:26.017Z,19.30
2018-06-09T19:25:58.895Z,19.30
2018-06-09T19:28:27.630Z,19.20
2018-06-09T19:30:56.451Z,19.10
2018-06-09T19:33:25.199Z,19.10
2018-06-09T19:38:22.303Z,19.20
2018-06-09T19:40:51.060Z,19.30
2018-06-09T19:43:19.865Z,19.40
2018-06-09T19:45:54.541Z,19.40
2018-06-09T19:48:25.179Z,19.40
2018-06-09T19:50:53.952Z,19.40
2018-06-09T19:53:22.973Z,19.30
2018-06-09T19:58:31.583Z,19.30
2018-06-09T20:01:01.352Z,19.30
2018-06-09T20:03:30.111Z,19.30
2018-06-09T20:08:29.277Z,19.20
2018-06-09T20:10:57.996Z,19.20
2018-06-09T20:13:26.742Z,19.20
2018-06-09T20:15:57.475Z,19.20
2018-06-09T20:18:27.910Z,19.20
2018-06-09T20:20:56.612Z,19.20
2018-06-09T20:23:25.371Z,19.20
2018-06-09T20:25:54.096Z,19.20
2018-06-09T20:28:22.844Z,19.10
2018-06-09T20:30:51.656Z,19.10
2018-06-09T20:33:20.407Z,19.10
2018-06-09T20:35:49.151Z,19.00
2018-06-09T20:38:17.900Z,19.00
2018-06-09T20:40:46.666Z,18.90
2018-06-09T20:43:33.442Z,19.00
2018-06-09T20:46:02.272Z,18.90
2018-06-09T20:48:31.140Z,18.80
2018-06-09T20:53:28.318Z,18.80
2018-06-09T20:55:57.078Z,18.80
2018-06-09T20:58:42.740Z,18.90
2018-06-09T21:01:11.456Z,18.90
2018-06-09T21:03:45.416Z,18.90
2018-06-09T21:06:14.429Z,18.90
2018-06-09T21:08:43.259Z,18.90
2018-06-09T21:11:25.155Z,18.80
2018-06-09T21:13:54.049Z,18.70
2018-06-09T21:16:22.854Z,18.70
2018-06-09T21:18:52.848Z,18.70
2018-06-09T21:21:21.630Z,18.60
2018-06-09T21:23:50.467Z,18.60
2018-06-09T21:26:19.303Z,18.50
2018-06-09T21:28:53.469Z,18.50
2018-06-09T21:31:27.603Z,18.40
2018-06-09T21:34:08.114Z,18.40
2018-06-09T21:36:42.150Z,18.30
2018-06-09T21:39:16.174Z,18.30
2018-06-09T21:41:51.960Z,18.20
2018-06-09T21:44:25.979Z,18.20
2018-06-09T21:46:54.766Z,18.10
2018-06-09T21:49:23.535Z,18.10
2018-06-09T21:51:52.276Z,18.10
2018-06-09T21:54:21.173Z,18.10
2018-06-09T21:56:49.912Z,18.00
2018-06-09T21:59:18.626Z,18.00
2018-06-09T22:01:47.373Z,18.00
2018-06-09T22:04:16.093Z,18.10
2018-06-09T22:06:44.892Z,18.10
2018-06-09T22:09:13.651Z,18.00
2018-06-09T22:11:42.502Z,18.00
2018-06-09T22:14:11.247Z,18.00
2018-06-09T22:16:40.083Z,18.00
2018-06-09T22:19:08.764Z,18.00
2018-06-09T22:21:37.474Z,17.90
2018-06-09T22:24:06.291Z,17.90
2018-06-09T22:29:03.411Z,17.90
2018-06-09T22:31:32.130Z,17.90
2018-06-09T22:34:01.094Z,17.90
2018-06-09T22:36:35.223Z,18.00
2018-06-09T22:39:06.093Z,18.10
2018-06-09T22:41:34.830Z,18.10
2018-06-09T22:44:04.064Z,18.10
2018-06-09T22:46:32.802Z,18.10
2018-06-09T22:49:01.811Z,18.10
2018-06-09T22:51:30.558Z,18.10
2018-06-09T22:53:59.269Z,18.10
2018-06-09T22:56:27.982Z,18.10
2018-06-09T22:58:56.679Z,18.10
2018-06-09T23:01:31.312Z,18.10
2018-06-09T23:04:16.407Z,18.00
2018-06-09T23:06:45.154Z,18.00
2018-06-09T23:09:13.870Z,18.00
2018-06-09T23:11:42.574Z,18.00
2018-06-09T23:14:11.339Z,18.00
2018-06-09T23:16:40.033Z,17.90
2018-06-09T23:19:08.728Z,17.90
2018-06-09T23:21:37.455Z,17.90
2018-06-09T23:24:06.216Z,17.90
2018-06-09T23:26:34.982Z,17.90
2018-06-09T23:29:03.718Z,17.90
2018-06-09T23:31:32.459Z,17.90
2018-06-09T23:34:01.391Z,17.90
2018-06-09T23:36:30.083Z,17.90
2018-06-09T23:38:58.794Z,17.90
2018-06-09T23:41:27.531Z,17.90
2018-06-09T23:43:56.520Z,17.90
2018-06-09T23:46:25.238Z,18.00
2018-06-09T23:48:53.923Z,18.00
2018-06-09T23:51:22.623Z,18.00
2018-06-09T23:53:51.692Z,18.00
2018-06-09T23:56:20.424Z,18.00
2018-06-09T23:58:49.124Z,18.10
